LIVF 192355Z 21003KT CAVOK 16/00 Q1025 LIVF 192255Z 19005KT CAVOK 15/02 Q1025 LIVF 192155Z 20006KT CAVOK 16/02 Q1025 LIVF 192055Z 00000KT CAVOK 16/04 Q1025 LIVF 191955Z 12003KT CAVOK 17/07 Q1025 LIVF 191855Z 10006KT CAVOK 18/09 Q1025 LIVF 191755Z 11004KT CAVOK 19/08 Q1025 LIVF 191655Z 08005KT CAVOK 20/08 Q1025 LIVF 191555Z 06003KT CAVOK 22/08 Q1025 LIVF 191455Z 13004KT CAVOK 22/08 Q1026 LIVF 191355Z 09006KT CAVOK 22/07 Q1026 LIVF 191255Z 11004KT CAVOK 23/07 Q1026 LIVF 191155Z 10002KT CAVOK 23/08 Q1026 LIVF 191055Z 07004KT CAVOK 22/08 Q1026 LIVF 190955Z 08004KT CAVOK 21/08 Q1026 LIVF 190855Z VRB00KT CAVOK 20/10 Q1026 LIVF 190755Z 10003KT CAVOK 18/12 Q1026 LIVF 190655Z 00000KT CAVOK 15/12 Q1025 LIVF 190555Z 35003KT CAVOK 15/12 Q1025 LIVF 190455Z 00000KT CAVOK 14/12 Q1024 LIVF 190355Z 03003KT CAVOK 14/11 Q1024 LIVF 190255Z 00000KT CAVOK 14/11 Q1024 LIVF 190155Z 00000KT CAVOK 14/10 Q1024 LIVF 190055Z 00000KT CAVOK 15/10 Q1024 LIVF 182355Z 00000KT CAVOK 15/10 Q1023 LIVF 182255Z 00000KT CAVOK 15/09 Q1023 LIVF 182155Z 00000KT CAVOK 15/10 Q1023 LIVF 182055Z 00000KT CAVOK 15/10 Q1023 LIVF 181955Z 00000KT CAVOK 16/11 Q1023 LIVF 181855Z 03003KT CAVOK 17/10 Q1022 LIVF 181755Z 03003KT CAVOK 19/09 Q1022 LIVF 181655Z 33004KT CAVOK 20/07 Q1022 LIVF 181555Z 00000KT CAVOK 21/09 Q1022 LIVF 181455Z 00000KT CAVOK 21/10 Q1022 LIVF 181355Z 00000KT 9999 FEW034 22/13 Q1022 LIVF 181255Z 33003KT 9999 FEW034 20/14 Q1022

METAR Messwerte "FRONTONE" LIVF

Zurück zur Übersicht

Ortsname
Ländercode / m ü. NN
Zeit Temperatur Taupunkt Rel.
Luftfeuchte
Luftdruck:
Altimeter
NN
Station
Wind in Beaufort
(Knoten)
Sichtweite
(Meter)
Wolken
(Meter über Grund)
Wettererscheinung
FRONTONE
IT 549
Fr 20.05. 01:5516034 %1025
1025
960
SSW 2 (3)>= 10000Nicht signifikant 
FRONTONE
IT 549
Fr 20.05. 00:5515241 %1025
1025
960
S 2 (5)>= 10000Nicht signifikant 
FRONTONE
IT 549
Do 19.05. 23:5516239 %1025
1025
960
SSW 2 (6)>= 10000Nicht signifikant 
FRONTONE
IT 549
Do 19.05. 22:5516445 %1025
1025
960
Windstill>= 10000Nicht signifikant 
FRONTONE
IT 549
Do 19.05. 21:5517752 %1025
1025
960
OSO 2 (3)>= 10000Nicht signifikant 
FRONTONE
IT 549
Do 19.05. 20:5518956 %1025
1024
960
O 2 (6)>= 10000Nicht signifikant 
FRONTONE
IT 549
Do 19.05. 19:5519849 %1025
1024
960
OSO 2 (4)>= 10000Nicht signifikant 
FRONTONE
IT 549
Do 19.05. 18:5520846 %1025
1024
960
O 2 (5)>= 10000Nicht signifikant 
FRONTONE
IT 549
Do 19.05. 17:5522841 %1025
1024
960
ONO 2 (3)>= 10000Nicht signifikant 
FRONTONE
IT 549
Do 19.05. 16:5522841 %1026
1025
961
SO 2 (4)>= 10000Nicht signifikant 
FRONTONE
IT 549
Do 19.05. 15:5522738 %1026
1025
961
O 2 (6)>= 10000Nicht signifikant 
FRONTONE
IT 549
Do 19.05. 14:5523736 %1026
1024
961
OSO 2 (4)>= 10000Nicht signifikant 
FRONTONE
IT 549
Do 19.05. 13:5523838 %1026
1024
961
O 1 (2)>= 10000Nicht signifikant 
FRONTONE
IT 549
Do 19.05. 12:5522841 %1026
1025
961
ONO 2 (4)>= 10000Nicht signifikant 
FRONTONE
IT 549
Do 19.05. 11:5521843 %1026
1025
961
O 2 (4)>= 10000Nicht signifikant 
FRONTONE
IT 549
Do 19.05. 10:55201053 %1026
1025
961
Windstill>= 10000Nicht signifikant 
FRONTONE
IT 549
Do 19.05. 09:55181268 %1026
1025
961
O 2 (3)>= 10000Nicht signifikant 
FRONTONE
IT 549
Do 19.05. 08:55151282 %1025
1025
960
Windstill>= 10000Nicht signifikant 
FRONTONE
IT 549
Do 19.05. 07:55151282 %1025
1025
960
N 2 (3)>= 10000Nicht signifikant 
FRONTONE
IT 549
Do 19.05. 06:55141288 %1024
1024
959
Windstill>= 10000Nicht signifikant 
FRONTONE
IT 549
Do 19.05. 05:55141182 %1024
1024
959
NNO 2 (3)>= 10000Nicht signifikant 
FRONTONE
IT 549
Do 19.05. 04:55141182 %1024
1024
959
Windstill>= 10000Nicht signifikant 
FRONTONE
IT 549
Do 19.05. 03:55141077 %1024
1024
959
Windstill>= 10000Nicht signifikant 
FRONTONE
IT 549
Do 19.05. 02:55151072 %1024
1024
959
Windstill>= 10000Nicht signifikant 
FRONTONE
IT 549
Do 19.05. 01:55151072 %1023
1023
958
Windstill>= 10000Nicht signifikant 
FRONTONE
IT 549
Do 19.05. 00:5515967 %1023
1023
958
Windstill>= 10000Nicht signifikant 
FRONTONE
IT 549
Mi 18.05. 23:55151072 %1023
1023
958
Windstill>= 10000Nicht signifikant 
FRONTONE
IT 549
Mi 18.05. 22:55151072 %1023
1023
958
Windstill>= 10000Nicht signifikant 
FRONTONE
IT 549
Mi 18.05. 21:55161172 %1023
1023
958
Windstill>= 10000Nicht signifikant 
FRONTONE
IT 549
Mi 18.05. 20:55171063 %1022
1022
957
NNO 2 (3)>= 10000Nicht signifikant 
FRONTONE
IT 549
Mi 18.05. 19:5519952 %1022
1021
957
NNO 2 (3)>= 10000Nicht signifikant 
FRONTONE
IT 549
Mi 18.05. 18:5520743 %1022
1021
957
NNW 2 (4)>= 10000Nicht signifikant 
FRONTONE
IT 549
Mi 18.05. 17:5521946 %1022
1021
957
Windstill>= 10000Nicht signifikant 
FRONTONE
IT 549
Mi 18.05. 16:55211049 %1022
1021
957
Windstill>= 10000Nicht signifikant 
FRONTONE
IT 549
Mi 18.05. 15:55221357 %1022
1021
957
Windstill>= 10000Leicht bewölkt (1000) 
FRONTONE
IT 549
Mi 18.05. 14:55201468 %1022
1021
957
NNW 2 (3)>= 10000Leicht bewölkt (1000) 

Altimeter: Einstellung am Altimeter (Höhenmesser), die Höhe 0 muss auf diesen Luftdruckwert zeigen, damit das Gerät die Stationshöhe richtig anzeigt.

NN: Luftdruck reduziert auf "Normal Null", auf Meereshöhe, dieser von der Temperatur abhängige Wert wird bisweilen unkorrekt einfach als "Luftdruck" bezeichnet. Eigentlich nur eine fiktive Größe, die es erlaubt, Stationen auf unterschiedlichen Höhen miteinander zu vergleichen.

Station: Realer Luftdruck an der Station.